Time;durP1;ratioP1;P1;durP2;ratioP2;P2;SDS_P1;SDS_P2;PMS_P1;PMS_P2;Temp;Humidity;BMP_temperature;BMP_pressure;BME280_temperature;BME280_humidity;BME280_pressure;Samples;Min_cycle;Max_cycle;Signal;HPM_P1;HPM_P2
2023/03/06 00:00:49;;;;;;;16.77;13.63;;;;;;;;;;5070597;28;20440;-76
2023/03/06 00:03:17;;;;;;;17.73;13.63;;;;;;;;;;5069932;28;20457;-75
2023/03/06 00:05:44;;;;;;;18.20;14.60;;;;;;;;;;5069728;28;20456;-75
2023/03/06 00:08:11;;;;;;;19.43;14.30;;;;;;;;;;5069593;28;20483;-77
2023/03/06 00:10:39;;;;;;;18.73;14.03;;;;;;;;;;5069903;28;20444;-75
2023/03/06 00:13:06;;;;;;;18.30;12.67;;;;;;;;;;5069475;28;20472;-76
2023/03/06 00:15:36;;;;;;;15.97;13.40;;;;;;;;;;5070006;28;20448;-75
2023/03/06 00:18:04;;;;;;;16.90;13.33;;;;;;;;;;5051167;28;20438;-75
2023/03/06 00:20:31;;;;;;;19.37;13.40;;;;;;;;;;5052615;28;20452;-75
2023/03/06 00:22:58;;;;;;;18.77;13.20;;;;;;;;;;5075255;28;20472;-75
2023/03/06 00:25:25;;;;;;;23.10;15.40;;;;;;;;;;5076401;28;20440;-75
2023/03/06 00:27:52;;;;;;;21.50;14.80;;;;;;;;;;5076426;28;20444;-75
2023/03/06 00:30:21;;;;;;;19.60;14.40;;;;;;;;;;5076750;28;20462;-76
2023/03/06 00:32:49;;;;;;;17.70;13.97;;;;;;;;;;5076750;28;20511;-75
2023/03/06 00:35:17;;;;;;;23.33;15.77;;;;;;;;;;5076749;28;20447;-75
2023/03/06 00:37:44;;;;;;;18.17;14.60;;;;;;;;;;5076470;28;20448;-75
2023/03/06 00:40:12;;;;;;;18.63;14.27;;;;;;;;;;5076673;28;20448;-76
2023/03/06 00:42:40;;;;;;;19.50;15.33;;;;;;;;;;5076184;28;20467;-75
2023/03/06 00:45:07;;;;;;;20.30;15.53;;;;;;;;;;5076379;28;20916;-75
2023/03/06 00:47:34;;;;;;;18.53;13.63;;;;;;;;;;5076561;28;20825;-75
2023/03/06 00:50:03;;;;;;;20.50;13.93;;;;;;;;;;5076161;28;20480;-75
2023/03/06 00:52:30;;;;;;;20.40;14.00;;;;;;;;;;5076095;28;20471;-75
2023/03/06 00:54:57;;;;;;;21.27;14.43;;;;;;;;;;5076221;28;20467;-76
2023/03/06 00:57:24;;;;;;;17.87;14.03;;;;;;;;;;5076457;28;20440;-74
2023/03/06 00:59:51;;;;;;;18.37;13.97;;;;;;;;;;5076537;28;20444;-76
2023/03/06 01:02:19;;;;;;;21.70;14.97;;;;;;;;;;5076278;28;20448;-76
2023/03/06 01:04:46;;;;;;;17.40;12.40;;;;;;;;;;5075502;28;20835;-75
2023/03/06 01:07:14;;;;;;;17.03;12.60;;;;;;;;;;5077253;28;20444;-75
2023/03/06 01:09:41;;;;;;;16.43;13.20;;;;;;;;;;5077581;28;20476;-74
2023/03/06 01:12:08;;;;;;;18.60;12.83;;;;;;;;;;5076961;28;20818;-76
2023/03/06 01:14:35;;;;;;;17.50;13.50;;;;;;;;;;5076250;28;20448;-75
2023/03/06 01:17:02;;;;;;;15.87;12.37;;;;;;;;;;5076379;28;20448;-74
2023/03/06 01:19:29;;;;;;;17.97;12.27;;;;;;;;;;5077844;28;20455;-75
2023/03/06 01:21:56;;;;;;;17.13;13.33;;;;;;;;;;5084389;28;20444;-75
2023/03/06 01:24:25;;;;;;;17.20;12.87;;;;;;;;;;5087067;28;20460;-75
2023/03/06 01:26:52;;;;;;;17.90;12.80;;;;;;;;;;5077995;28;20472;-75
2023/03/06 01:29:19;;;;;;;20.40;12.93;;;;;;;;;;5092526;28;20498;-74
2023/03/06 01:31:46;;;;;;;14.97;12.87;;;;;;;;;;5085172;28;20475;-74
2023/03/06 01:34:13;;;;;;;15.60;12.50;;;;;;;;;;5074588;28;20456;-76
2023/03/06 01:36:40;;;;;;;17.10;13.87;;;;;;;;;;5073182;28;20441;-75
2023/03/06 01:39:07;;;;;;;16.67;12.87;;;;;;;;;;5074406;28;20441;-75
2023/03/06 01:41:36;;;;;;;18.00;13.50;;;;;;;;;;5074447;28;20433;-75
2023/03/06 01:44:03;;;;;;;16.83;12.37;;;;;;;;;;5079181;28;20469;-75
2023/03/06 01:46:32;;;;;;;16.30;11.70;;;;;;;;;;5077260;28;20448;-75
2023/03/06 01:49:01;;;;;;;14.73;12.30;;;;;;;;;;5082364;28;20955;-74
2023/03/06 01:51:30;;;;;;;15.80;11.60;;;;;;;;;;5084200;28;20456;-75
2023/03/06 01:53:58;;;;;;;15.60;11.93;;;;;;;;;;5078470;28;20480;-76
2023/03/06 01:56:25;;;;;;;14.97;12.83;;;;;;;;;;5076661;28;20449;-75
2023/03/06 01:58:54;;;;;;;15.70;12.10;;;;;;;;;;5072255;28;20440;-75
2023/03/06 02:01:21;;;;;;;14.37;11.60;;;;;;;;;;5073738;28;20449;-76
2023/03/06 02:03:49;;;;;;;16.10;12.47;;;;;;;;;;5073869;28;21111;-74
2023/03/06 02:06:18;;;;;;;13.83;10.90;;;;;;;;;;5073702;28;20476;-75
2023/03/06 02:08:46;;;;;;;13.93;11.53;;;;;;;;;;5076397;28;20510;-74
2023/03/06 02:11:14;;;;;;;13.37;11.50;;;;;;;;;;5076446;28;20973;-75
2023/03/06 02:13:41;;;;;;;13.40;10.93;;;;;;;;;;5071752;28;20464;-75
2023/03/06 02:16:11;;;;;;;15.70;11.30;;;;;;;;;;5068723;28;20442;-75
2023/03/06 02:18:39;;;;;;;14.60;12.23;;;;;;;;;;5052084;28;21236;-74
2023/03/06 02:21:07;;;;;;;15.30;12.07;;;;;;;;;;5052260;28;20453;-75
2023/03/06 02:23:41;;;;;;;15.00;11.30;;;;;;;;;;5051818;28;20469;-76
2023/03/06 02:26:10;;;;;;;14.63;11.63;;;;;;;;;;5052071;28;20528;-75
2023/03/06 02:28:38;;;;;;;17.40;12.03;;;;;;;;;;5051411;28;20582;-76
2023/03/06 02:31:06;;;;;;;16.90;12.43;;;;;;;;;;5051751;28;20469;-75
2023/03/06 02:33:33;;;;;;;18.73;14.40;;;;;;;;;;5051193;28;20470;-75
2023/03/06 02:36:01;;;;;;;19.57;16.17;;;;;;;;;;5051530;28;20812;-76
2023/03/06 02:38:29;;;;;;;21.40;17.90;;;;;;;;;;5051386;28;21039;-76
2023/03/06 02:40:56;;;;;;;24.60;17.77;;;;;;;;;;5051368;28;20445;-75
2023/03/06 02:43:26;;;;;;;24.17;17.97;;;;;;;;;;5050913;28;20480;-75
2023/03/06 02:45:53;;;;;;;18.70;13.33;;;;;;;;;;5051717;28;21007;-75
2023/03/06 02:48:20;;;;;;;21.67;14.30;;;;;;;;;;5051598;28;20453;-74
2023/03/06 02:50:48;;;;;;;20.73;13.77;;;;;;;;;;5051585;28;21032;-75
2023/03/06 02:53:16;;;;;;;19.10;13.50;;;;;;;;;;5051263;28;20473;-74
2023/03/06 02:55:43;;;;;;;17.83;12.57;;;;;;;;;;5051158;28;20454;-76
2023/03/06 02:58:11;;;;;;;16.87;13.40;;;;;;;;;;5051458;28;20446;-75
2023/03/06 03:00:39;;;;;;;18.40;13.73;;;;;;;;;;5051588;28;20449;-75
2023/03/06 03:03:06;;;;;;;22.10;13.77;;;;;;;;;;5050887;28;20474;-74
2023/03/06 03:05:33;;;;;;;18.27;14.13;;;;;;;;;;5052422;28;20956;-74
2023/03/06 03:08:00;;;;;;;18.33;13.97;;;;;;;;;;5062626;28;20452;-75
2023/03/06 03:10:27;;;;;;;15.63;11.77;;;;;;;;;;5071242;28;20480;-74
2023/03/06 03:12:55;;;;;;;15.13;12.17;;;;;;;;;;5070588;28;20522;-76
2023/03/06 03:15:22;;;;;;;16.10;12.40;;;;;;;;;;5071643;28;20456;-73
2023/03/06 03:17:50;;;;;;;16.00;10.90;;;;;;;;;;5054135;28;20471;-75
2023/03/06 03:20:18;;;;;;;14.60;10.70;;;;;;;;;;5050917;28;20948;-74
2023/03/06 03:22:47;;;;;;;12.57;11.37;;;;;;;;;;5050562;28;20703;-75
2023/03/06 03:25:14;;;;;;;12.57;10.97;;;;;;;;;;5051177;28;20476;-75
2023/03/06 03:27:41;;;;;;;14.00;10.73;;;;;;;;;;5051506;28;20429;-75
2023/03/06 03:30:10;;;;;;;13.23;11.30;;;;;;;;;;5052019;28;20806;-75
2023/03/06 03:32:37;;;;;;;12.63;11.33;;;;;;;;;;5051826;28;20825;-75
2023/03/06 03:35:06;;;;;;;14.33;11.73;;;;;;;;;;5054430;28;20449;-76
2023/03/06 03:37:34;;;;;;;12.77;10.03;;;;;;;;;;5054369;28;20863;-76
2023/03/06 03:40:01;;;;;;;16.47;11.20;;;;;;;;;;5057409;28;20441;-75
2023/03/06 03:42:28;;;;;;;15.23;10.97;;;;;;;;;;5056589;28;20836;-75
2023/03/06 03:44:55;;;;;;;12.77;10.53;;;;;;;;;;5056835;28;20441;-74
2023/03/06 03:47:22;;;;;;;14.67;11.37;;;;;;;;;;5056190;28;20437;-74
2023/03/06 03:49:49;;;;;;;14.03;11.13;;;;;;;;;;5055423;28;20488;-75
2023/03/06 03:52:17;;;;;;;14.70;11.47;;;;;;;;;;5051456;28;20457;-75
2023/03/06 03:54:45;;;;;;;13.30;10.10;;;;;;;;;;5050283;28;20441;-75
2023/03/06 03:57:12;;;;;;;14.90;11.80;;;;;;;;;;5051102;28;20441;-75
2023/03/06 03:59:39;;;;;;;13.33;10.83;;;;;;;;;;5051185;28;21008;-74
2023/03/06 04:02:06;;;;;;;12.50;11.10;;;;;;;;;;5052298;28;20441;-74
2023/03/06 04:04:33;;;;;;;11.70;10.30;;;;;;;;;;5051078;28;20594;-75
2023/03/06 04:07:00;;;;;;;13.47;11.83;;;;;;;;;;5050585;28;20575;-75
2023/03/06 04:09:28;;;;;;;16.63;11.00;;;;;;;;;;5050637;28;20524;-75
2023/03/06 04:11:55;;;;;;;12.23;10.27;;;;;;;;;;5050339;28;20914;-74
2023/03/06 04:14:22;;;;;;;12.80;10.93;;;;;;;;;;5050946;28;20473;-74
2023/03/06 04:16:49;;;;;;;14.67;11.37;;;;;;;;;;5051710;28;20445;-74
2023/03/06 04:19:16;;;;;;;14.17;11.80;;;;;;;;;;5051803;28;20848;-74
2023/03/06 04:21:43;;;;;;;12.70;10.97;;;;;;;;;;5051845;28;20468;-74
2023/03/06 04:24:10;;;;;;;13.60;11.10;;;;;;;;;;5052060;28;20553;-76
2023/03/06 04:26:39;;;;;;;13.80;10.43;;;;;;;;;;5051758;28;20547;-74
2023/03/06 04:29:06;;;;;;;11.00;9.27;;;;;;;;;;5049868;28;20941;-75
2023/03/06 04:31:33;;;;;;;11.00;9.53;;;;;;;;;;5049525;28;20441;-74
2023/03/06 04:34:00;;;;;;;13.43;10.47;;;;;;;;;;5049508;28;20458;-76
2023/03/06 04:36:28;;;;;;;12.53;11.23;;;;;;;;;;5049804;28;20441;-75
2023/03/06 04:38:55;;;;;;;12.70;10.37;;;;;;;;;;5050772;28;20832;-74
2023/03/06 04:41:22;;;;;;;11.23;10.03;;;;;;;;;;5049513;28;20933;-75
2023/03/06 04:43:50;;;;;;;13.20;11.03;;;;;;;;;;5049219;28;20461;-75
2023/03/06 04:46:17;;;;;;;14.83;11.03;;;;;;;;;;5049551;28;20468;-75
2023/03/06 04:48:45;;;;;;;11.73;9.80;;;;;;;;;;5049533;28;20976;-76
2023/03/06 04:51:12;;;;;;;12.60;10.90;;;;;;;;;;5049585;28;20508;-75
2023/03/06 04:53:39;;;;;;;14.10;10.90;;;;;;;;;;5049247;28;20531;-75
2023/03/06 04:56:07;;;;;;;13.20;10.60;;;;;;;;;;5049602;28;20449;-75
2023/03/06 04:58:34;;;;;;;15.23;10.50;;;;;;;;;;5049263;28;20445;-75
2023/03/06 05:01:02;;;;;;;11.20;9.73;;;;;;;;;;5049800;28;20453;-75
2023/03/06 05:03:29;;;;;;;12.27;11.00;;;;;;;;;;5049374;28;20845;-75
2023/03/06 05:05:56;;;;;;;13.57;10.40;;;;;;;;;;5049377;28;20558;-76
2023/03/06 05:08:23;;;;;;;12.10;10.57;;;;;;;;;;5052061;28;20472;-75
2023/03/06 05:10:54;;;;;;;10.43;9.33;;;;;;;;;;5053724;28;20481;-74
2023/03/06 05:13:21;;;;;;;13.90;10.20;;;;;;;;;;5052922;28;20552;-75
2023/03/06 05:15:48;;;;;;;12.93;9.80;;;;;;;;;;5053310;28;20518;-74
2023/03/06 05:18:17;;;;;;;12.57;9.90;;;;;;;;;;5073216;28;20451;-74
2023/03/06 05:20:44;;;;;;;12.43;9.70;;;;;;;;;;5073071;28;20448;-74
2023/03/06 05:23:11;;;;;;;11.90;9.70;;;;;;;;;;5072664;28;20608;-75
2023/03/06 05:25:39;;;;;;;10.30;8.90;;;;;;;;;;5072926;28;20436;-75
2023/03/06 05:28:06;;;;;;;11.63;9.83;;;;;;;;;;5072942;28;20543;-75
2023/03/06 05:30:33;;;;;;;14.10;10.07;;;;;;;;;;5073313;28;20467;-75
2023/03/06 05:33:00;;;;;;;12.90;9.77;;;;;;;;;;5072518;28;20491;-75
2023/03/06 05:35:29;;;;;;;12.97;10.20;;;;;;;;;;5072825;28;20486;-74
2023/03/06 05:37:56;;;;;;;11.97;10.13;;;;;;;;;;5073099;28;20466;-75
2023/03/06 05:40:23;;;;;;;12.70;10.30;;;;;;;;;;5072629;28;20440;-75
2023/03/06 05:42:50;;;;;;;13.97;9.63;;;;;;;;;;5072708;28;20526;-74
2023/03/06 05:45:17;;;;;;;14.40;10.60;;;;;;;;;;5078502;28;20444;-75
2023/03/06 05:47:44;;;;;;;12.47;9.90;;;;;;;;;;5072935;28;20478;-76
2023/03/06 05:50:12;;;;;;;14.40;11.00;;;;;;;;;;5072488;28;20476;-75
2023/03/06 05:52:41;;;;;;;12.40;9.77;;;;;;;;;;5072069;28;20468;-75
2023/03/06 05:55:11;;;;;;;12.73;9.57;;;;;;;;;;5072080;28;20925;-75
2023/03/06 05:57:38;;;;;;;12.80;9.33;;;;;;;;;;5072427;28;21267;-75
2023/03/06 06:00:06;;;;;;;12.53;9.57;;;;;;;;;;5074326;28;20448;-76
2023/03/06 06:02:33;;;;;;;12.33;8.93;;;;;;;;;;5072547;28;20475;-75
2023/03/06 06:05:01;;;;;;;14.07;10.20;;;;;;;;;;5072768;28;20448;-75
2023/03/06 06:07:28;;;;;;;13.20;9.17;;;;;;;;;;5072581;28;20455;-75
2023/03/06 06:09:58;;;;;;;11.30;9.67;;;;;;;;;;5072794;28;20483;-75
2023/03/06 06:12:25;;;;;;;14.10;10.90;;;;;;;;;;5072537;28;20471;-75
2023/03/06 06:14:52;;;;;;;13.57;9.63;;;;;;;;;;5072582;28;20456;-75
2023/03/06 06:17:19;;;;;;;11.20;9.23;;;;;;;;;;5060135;28;20474;-75
2023/03/06 06:19:46;;;;;;;14.37;10.30;;;;;;;;;;5051862;28;20964;-75
2023/03/06 06:22:13;;;;;;;36.27;27.80;;;;;;;;;;5052840;28;20445;-75
2023/03/06 06:24:40;;;;;;;28.20;22.57;;;;;;;;;;5052734;28;20445;-75
2023/03/06 06:27:08;;;;;;;25.10;20.17;;;;;;;;;;5052912;28;20549;-75
2023/03/06 06:29:35;;;;;;;23.93;19.37;;;;;;;;;;5053357;28;20449;-75
2023/03/06 06:32:03;;;;;;;21.67;16.80;;;;;;;;;;5051752;28;20799;-75
2023/03/06 06:34:30;;;;;;;23.77;18.63;;;;;;;;;;5067068;28;20465;-75
2023/03/06 06:36:58;;;;;;;22.90;16.27;;;;;;;;;;5069247;28;20441;-75
2023/03/06 06:39:25;;;;;;;16.23;14.13;;;;;;;;;;5088447;28;20437;-75
2023/03/06 06:41:52;;;;;;;19.00;14.17;;;;;;;;;;5083303;28;20548;-75
2023/03/06 06:44:20;;;;;;;19.93;13.03;;;;;;;;;;5082695;28;20483;-74
2023/03/06 06:46:49;;;;;;;17.67;13.77;;;;;;;;;;5079670;28;20437;-74
2023/03/06 06:49:16;;;;;;;18.50;13.53;;;;;;;;;;5071494;28;20502;-74
2023/03/06 06:51:43;;;;;;;16.50;13.50;;;;;;;;;;5071731;28;20484;-75
2023/03/06 06:54:11;;;;;;;21.80;15.23;;;;;;;;;;5071728;28;20518;-75
2023/03/06 06:56:38;;;;;;;21.53;15.80;;;;;;;;;;5072045;28;20852;-75
2023/03/06 06:59:05;;;;;;;22.50;15.00;;;;;;;;;;5071768;28;20456;-76
2023/03/06 07:01:33;;;;;;;22.30;16.17;;;;;;;;;;5071306;28;20452;-75
2023/03/06 07:04:00;;;;;;;20.60;15.63;;;;;;;;;;5071475;28;20464;-74
2023/03/06 07:06:27;;;;;;;19.50;14.60;;;;;;;;;;5073980;28;20441;-75
2023/03/06 07:08:54;;;;;;;18.60;13.73;;;;;;;;;;5075837;28;20808;-75
2023/03/06 07:11:21;;;;;;;22.53;16.30;;;;;;;;;;5072394;28;20479;-75
2023/03/06 07:13:48;;;;;;;20.97;15.50;;;;;;;;;;5074492;28;21255;-75
2023/03/06 07:16:17;;;;;;;19.10;13.70;;;;;;;;;;5074000;28;20447;-74
2023/03/06 07:18:45;;;;;;;19.83;14.70;;;;;;;;;;5071795;28;20498;-77
2023/03/06 07:21:12;;;;;;;22.77;15.23;;;;;;;;;;5071721;28;20432;-76
2023/03/06 07:23:40;;;;;;;14.90;11.87;;;;;;;;;;5073709;28;20464;-76
2023/03/06 07:26:07;;;;;;;14.37;11.90;;;;;;;;;;5071248;28;20448;-75
2023/03/06 07:28:35;;;;;;;15.20;11.60;;;;;;;;;;5071439;28;20445;-75
2023/03/06 07:31:02;;;;;;;17.57;12.13;;;;;;;;;;5078937;28;20491;-76
2023/03/06 07:33:29;;;;;;;18.37;12.00;;;;;;;;;;5079000;28;20968;-76
2023/03/06 07:35:57;;;;;;;18.70;12.40;;;;;;;;;;5074474;28;20448;-75
2023/03/06 07:38:25;;;;;;;17.23;12.73;;;;;;;;;;5070737;28;20436;-75
2023/03/06 07:40:52;;;;;;;16.97;12.73;;;;;;;;;;5071203;28;20444;-76
2023/03/06 07:43:19;;;;;;;12.37;10.93;;;;;;;;;;5071051;28;20464;-75
2023/03/06 07:45:47;;;;;;;15.23;11.60;;;;;;;;;;5071029;28;20449;-75
2023/03/06 07:48:14;;;;;;;17.80;12.67;;;;;;;;;;5070784;28;20440;-76
2023/03/06 07:50:42;;;;;;;15.47;12.60;;;;;;;;;;5070746;28;20571;-76
2023/03/06 07:53:10;;;;;;;16.83;13.07;;;;;;;;;;5070341;28;21000;-76
2023/03/06 07:55:40;;;;;;;17.40;12.90;;;;;;;;;;5070451;28;20445;-76
2023/03/06 07:58:07;;;;;;;16.80;13.50;;;;;;;;;;5070712;28;20445;-77
2023/03/06 08:00:34;;;;;;;17.43;12.97;;;;;;;;;;5070670;28;20444;-76
2023/03/06 08:03:02;;;;;;;18.13;12.33;;;;;;;;;;5069911;28;20461;-77
2023/03/06 08:05:29;;;;;;;15.80;12.67;;;;;;;;;;5070301;28;20456;-75
2023/03/06 08:07:56;;;;;;;17.90;11.60;;;;;;;;;;5070950;28;20497;-75
2023/03/06 08:10:24;;;;;;;13.10;11.07;;;;;;;;;;5072604;28;20447;-76
2023/03/06 08:12:51;;;;;;;11.00;9.77;;;;;;;;;;5071672;28;20472;-76
2023/03/06 08:15:19;;;;;;;13.87;9.97;;;;;;;;;;5070571;28;21293;-75
2023/03/06 08:17:46;;;;;;;13.53;10.00;;;;;;;;;;5069957;28;20787;-77
2023/03/06 08:20:14;;;;;;;10.57;8.90;;;;;;;;;;5069923;28;20440;-75
2023/03/06 08:22:41;;;;;;;11.93;9.27;;;;;;;;;;5070069;28;20492;-77
2023/03/06 08:25:09;;;;;;;11.97;8.87;;;;;;;;;;5070154;28;20498;-75
2023/03/06 08:27:37;;;;;;;11.40;9.00;;;;;;;;;;5070085;28;20963;-75
2023/03/06 08:30:05;;;;;;;11.33;8.57;;;;;;;;;;5070354;28;20480;-76
2023/03/06 08:32:32;;;;;;;9.97;8.10;;;;;;;;;;5070236;28;20550;-76
2023/03/06 08:34:59;;;;;;;9.97;8.37;;;;;;;;;;5070554;28;20447;-76
2023/03/06 08:37:26;;;;;;;11.10;8.97;;;;;;;;;;5070406;28;20448;-76
2023/03/06 08:39:53;;;;;;;11.60;7.80;;;;;;;;;;5070567;28;20460;-76
2023/03/06 08:42:20;;;;;;;12.63;8.30;;;;;;;;;;5073096;28;20808;-78
2023/03/06 08:44:48;;;;;;;10.50;9.20;;;;;;;;;;5074370;28;20441;-76
2023/03/06 08:47:15;;;;;;;8.03;7.20;;;;;;;;;;5074373;28;20508;-76
2023/03/06 08:49:42;;;;;;;9.83;7.80;;;;;;;;;;5074523;28;20440;-77
2023/03/06 08:52:10;;;;;;;9.30;7.40;;;;;;;;;;5074040;28;20480;-76
2023/03/06 08:54:38;;;;;;;8.63;7.00;;;;;;;;;;5073652;28;20455;-77
2023/03/06 08:57:05;;;;;;;9.33;7.50;;;;;;;;;;5073607;28;20452;-76
2023/03/06 08:59:32;;;;;;;9.00;8.10;;;;;;;;;;5073944;28;20448;-77
2023/03/06 09:02:00;;;;;;;12.40;7.87;;;;;;;;;;5073468;28;20940;-76
2023/03/06 09:04:29;;;;;;;10.83;7.80;;;;;;;;;;5073153;28;20484;-76
2023/03/06 09:06:57;;;;;;;11.33;8.73;;;;;;;;;;5073880;28;20429;-77
2023/03/06 09:09:24;;;;;;;9.67;7.43;;;;;;;;;;5073817;28;20448;-76
2023/03/06 09:11:52;;;;;;;7.80;7.00;;;;;;;;;;5073567;28;20510;-76
2023/03/06 09:14:19;;;;;;;7.73;6.90;;;;;;;;;;5072654;28;20464;-76
2023/03/06 09:16:46;;;;;;;8.23;7.40;;;;;;;;;;5066687;28;20956;-76
2023/03/06 09:19:14;;;;;;;8.33;7.03;;;;;;;;;;5054267;28;20457;-77
2023/03/06 09:21:42;;;;;;;9.27;7.33;;;;;;;;;;5054770;28;20441;-77
2023/03/06 09:24:09;;;;;;;9.93;7.97;;;;;;;;;;5053728;28;20552;-76
2023/03/06 09:26:36;;;;;;;9.60;7.27;;;;;;;;;;5053699;28;20449;-76
2023/03/06 09:29:03;;;;;;;9.40;7.60;;;;;;;;;;5054047;28;20851;-76
2023/03/06 09:31:30;;;;;;;8.60;7.27;;;;;;;;;;5053295;28;20477;-76
2023/03/06 09:33:57;;;;;;;8.40;7.33;;;;;;;;;;5052856;28;20599;-77
2023/03/06 09:36:26;;;;;;;8.73;7.83;;;;;;;;;;5052947;28;20445;-77
2023/03/06 09:38:53;;;;;;;10.83;7.97;;;;;;;;;;5053069;28;20448;-76
2023/03/06 09:41:23;;;;;;;9.03;7.57;;;;;;;;;;5052951;28;20434;-76
2023/03/06 09:43:52;;;;;;;9.20;7.20;;;;;;;;;;5052939;28;20469;-77
2023/03/06 09:46:20;;;;;;;10.70;7.47;;;;;;;;;;5053284;28;20446;-76
2023/03/06 09:48:54;;;;;;;8.77;6.80;;;;;;;;;;5054116;28;20458;-76
2023/03/06 09:51:25;;;;;;;9.67;7.50;;;;;;;;;;5052545;28;20532;-76
2023/03/06 09:53:59;;;;;;;11.00;8.03;;;;;;;;;;5051573;28;20504;-77
2023/03/06 09:56:30;;;;;;;9.97;7.50;;;;;;;;;;5052675;28;20436;-76
2023/03/06 09:59:00;;;;;;;9.60;7.53;;;;;;;;;;5052901;28;20430;-76
2023/03/06 10:01:28;;;;;;;9.33;7.77;;;;;;;;;;5053368;28;20433;-77
2023/03/06 10:03:58;;;;;;;8.70;7.23;;;;;;;;;;5054112;28;20467;-76
2023/03/06 10:06:29;;;;;;;10.23;7.80;;;;;;;;;;5053386;28;20445;-76
2023/03/06 10:08:58;;;;;;;9.70;8.30;;;;;;;;;;5054012;28;20517;-78
2023/03/06 10:11:28;;;;;;;9.30;7.20;;;;;;;;;;5053278;28;20481;-76
2023/03/06 10:14:06;;;;;;;10.50;7.47;;;;;;;;;;5052576;28;20466;-77
2023/03/06 10:16:33;;;;;;;7.53;6.73;;;;;;;;;;5058745;28;20452;-76
2023/03/06 10:19:02;;;;;;;9.40;6.80;;;;;;;;;;5072410;28;20451;-76
2023/03/06 10:21:34;;;;;;;8.80;7.40;;;;;;;;;;5071838;28;20440;-77
2023/03/06 10:24:07;;;;;;;7.83;7.03;;;;;;;;;;5071494;28;20980;-76
2023/03/06 10:26:37;;;;;;;8.40;7.30;;;;;;;;;;5072059;28;20433;-76
2023/03/06 10:29:17;;;;;;;10.30;7.97;;;;;;;;;;5063375;28;20437;-77
2023/03/06 10:31:47;;;;;;;9.37;7.47;;;;;;;;;;5051314;28;20482;-76
2023/03/06 10:34:20;;;;;;;9.30;7.63;;;;;;;;;;5051641;28;20465;-76
2023/03/06 10:36:47;;;;;;;9.13;8.23;;;;;;;;;;5051760;28;20445;-76
2023/03/06 10:39:18;;;;;;;8.03;7.10;;;;;;;;;;5051629;28;20945;-76
2023/03/06 10:41:45;;;;;;;8.30;7.40;;;;;;;;;;5051828;28;20484;-78
2023/03/06 10:44:23;;;;;;;8.80;7.30;;;;;;;;;;5069631;28;20470;-76
2023/03/06 10:46:51;;;;;;;14.70;7.83;;;;;;;;;;5071545;28;20523;-76
2023/03/06 10:49:26;;;;;;;7.60;6.90;;;;;;;;;;5071356;28;20532;-77
2023/03/06 10:51:56;;;;;;;10.60;7.70;;;;;;;;;;5071437;28;20517;-77
2023/03/06 10:54:25;;;;;;;8.53;7.60;;;;;;;;;;5070717;28;20464;-76
2023/03/06 10:56:52;;;;;;;8.67;7.23;;;;;;;;;;5071200;28;20491;-76
2023/03/06 10:59:21;;;;;;;8.10;7.30;;;;;;;;;;5071390;28;20452;-75
2023/03/06 11:01:49;;;;;;;8.53;7.40;;;;;;;;;;5071139;28;20460;-76
2023/03/06 11:04:22;;;;;;;8.13;7.33;;;;;;;;;;5070584;28;20862;-76
2023/03/06 11:06:50;;;;;;;9.33;7.23;;;;;;;;;;5067562;28;20514;-76
2023/03/06 11:09:21;;;;;;;9.40;7.40;;;;;;;;;;5057242;28;20468;-75
2023/03/06 11:11:49;;;;;;;9.40;6.80;;;;;;;;;;5068226;28;20958;-78
2023/03/06 11:14:18;;;;;;;7.33;6.47;;;;;;;;;;5070499;28;20465;-76
2023/03/06 11:16:51;;;;;;;9.43;7.93;;;;;;;;;;5070831;28;20955;-76
2023/03/06 11:19:20;;;;;;;8.50;7.43;;;;;;;;;;5071117;28;20920;-77
2023/03/06 11:21:59;;;;;;;9.00;8.10;;;;;;;;;;5070916;28;20916;-77
2023/03/06 11:24:27;;;;;;;9.60;6.87;;;;;;;;;;5071962;28;20456;-76
2023/03/06 11:26:57;;;;;;;12.63;8.07;;;;;;;;;;5077196;28;20440;-78
2023/03/06 11:29:31;;;;;;;7.80;6.80;;;;;;;;;;5080123;28;20452;-76
2023/03/06 11:32:00;;;;;;;7.80;7.00;;;;;;;;;;5080112;28;20476;-77
2023/03/06 11:34:31;;;;;;;8.80;7.50;;;;;;;;;;5069797;28;20474;-77
2023/03/06 11:37:07;;;;;;;8.70;7.30;;;;;;;;;;5077302;28;20540;-76
2023/03/06 11:54:10;;;;;;;9.47;8.13;;;;;;;;;;5063946;28;20522;-77
2023/03/06 11:56:42;;;;;;;11.30;8.33;;;;;;;;;;5069432;28;20519;-77
2023/03/06 11:59:20;;;;;;;9.20;8.23;;;;;;;;;;5069097;28;20582;-76
2023/03/06 12:01:51;;;;;;;11.07;7.43;;;;;;;;;;5069594;28;20428;-76
2023/03/06 12:04:29;;;;;;;7.50;6.77;;;;;;;;;;5069198;28;21014;-78
2023/03/06 12:07:00;;;;;;;9.53;8.40;;;;;;;;;;5069632;28;20440;-77
2023/03/06 12:09:34;;;;;;;9.03;7.63;;;;;;;;;;5069172;28;20444;-76
2023/03/06 12:12:07;;;;;;;8.87;7.70;;;;;;;;;;5069036;28;21066;-77
2023/03/06 12:14:43;;;;;;;7.90;7.10;;;;;;;;;;5068767;28;20984;-76
2023/03/06 12:17:16;;;;;;;9.67;8.67;;;;;;;;;;5068785;28;20466;-77
2023/03/06 12:19:59;;;;;;;10.27;8.37;;;;;;;;;;5069311;28;20440;-77
2023/03/06 12:22:33;;;;;;;9.63;8.40;;;;;;;;;;5068492;28;20444;-76
2023/03/06 12:25:05;;;;;;;8.13;7.33;;;;;;;;;;5069654;28;20444;-77
2023/03/06 12:27:36;;;;;;;9.10;7.10;;;;;;;;;;5069707;28;20846;-76
2023/03/06 12:30:16;;;;;;;9.37;7.57;;;;;;;;;;5069739;28;20449;-76
2023/03/06 12:32:49;;;;;;;7.13;6.43;;;;;;;;;;5068676;28;20472;-79
2023/03/06 12:35:33;;;;;;;7.30;6.53;;;;;;;;;;5069843;28;20453;-76
2023/03/06 12:38:05;;;;;;;10.57;7.90;;;;;;;;;;5061084;28;20455;-77
2023/03/06 12:40:40;;;;;;;8.33;7.33;;;;;;;;;;5070756;28;20432;-77
2023/03/06 12:43:18;;;;;;;8.33;7.53;;;;;;;;;;5068013;28;20543;-78
2023/03/06 12:45:48;;;;;;;8.13;7.20;;;;;;;;;;5069142;28;20539;-78
2023/03/06 12:48:16;;;;;;;8.73;7.33;;;;;;;;;;5068754;28;20440;-77
2023/03/06 12:50:43;;;;;;;8.77;7.10;;;;;;;;;;5068806;28;20455;-76
2023/03/06 12:53:14;;;;;;;8.90;7.70;;;;;;;;;;5070370;28;20923;-75
2023/03/06 12:55:43;;;;;;;8.23;7.40;;;;;;;;;;5069527;28;20455;-76
2023/03/06 12:58:28;;;;;;;7.60;6.80;;;;;;;;;;5070337;28;20449;-78
2023/03/06 13:00:58;;;;;;;9.27;7.73;;;;;;;;;;5070271;28;20452;-77
2023/03/06 13:03:28;;;;;;;7.33;6.20;;;;;;;;;;5069189;28;20540;-75
2023/03/06 13:06:01;;;;;;;9.10;6.80;;;;;;;;;;5068333;28;20449;-78
2023/03/06 13:08:53;;;;;;;8.43;7.43;;;;;;;;;;5069109;28;20539;-76
2023/03/06 13:11:27;;;;;;;8.13;6.77;;;;;;;;;;5066777;28;21197;-77
2023/03/06 13:13:54;;;;;;;8.00;6.63;;;;;;;;;;5065848;28;21131;-77
2023/03/06 13:16:29;;;;;;;10.00;7.87;;;;;;;;;;5066633;28;20441;-76
2023/03/06 13:19:01;;;;;;;7.77;7.07;;;;;;;;;;5066950;28;20436;-75
2023/03/06 13:21:48;;;;;;;8.07;6.53;;;;;;;;;;5066483;28;20459;-76
2023/03/06 13:24:17;;;;;;;10.00;6.77;;;;;;;;;;5065708;28;20468;-76
2023/03/06 13:26:58;;;;;;;8.00;7.03;;;;;;;;;;5066326;28;21144;-76
2023/03/06 13:29:43;;;;;;;7.53;6.30;;;;;;;;;;5069145;28;20444;-76
2023/03/06 13:32:17;;;;;;;8.23;7.20;;;;;;;;;;5070456;28;20484;-77
2023/03/06 13:34:45;;;;;;;8.97;6.43;;;;;;;;;;5072768;28;20456;-77
2023/03/06 13:37:27;;;;;;;7.77;6.97;;;;;;;;;;5070547;28;20449;-77
2023/03/06 13:40:13;;;;;;;7.13;6.30;;;;;;;;;;5073026;28;20441;-78
2023/03/06 13:42:55;;;;;;;8.10;6.17;;;;;;;;;;5073942;28;20460;-78
2023/03/06 13:45:24;;;;;;;11.67;6.63;;;;;;;;;;5073366;28;20483;-76
2023/03/06 13:47:53;;;;;;;7.17;6.47;;;;;;;;;;5072857;28;20445;-76
2023/03/06 13:50:32;;;;;;;6.83;5.70;;;;;;;;;;5072964;28;20429;-76
2023/03/06 13:53:06;;;;;;;9.17;6.30;;;;;;;;;;5072835;28;21114;-78
2023/03/06 13:55:38;;;;;;;7.17;6.07;;;;;;;;;;5074771;28;20860;-76
2023/03/06 13:58:11;;;;;;;6.50;5.50;;;;;;;;;;5076524;28;20452;-76
2023/03/06 14:00:57;;;;;;;7.73;6.73;;;;;;;;;;5075544;28;20463;-77
2023/03/06 14:03:48;;;;;;;8.23;6.17;;;;;;;;;;5073756;28;20457;-76
2023/03/06 14:06:45;;;;;;;9.40;6.10;;;;;;;;;;5055151;28;20855;-77
2023/03/06 14:09:19;;;;;;;8.73;6.50;;;;;;;;;;5010453;28;20446;-75
2023/03/06 14:11:49;;;;;;;7.40;6.03;;;;;;;;;;5057589;28;20509;-76
2023/03/06 14:14:16;;;;;;;6.63;5.93;;;;;;;;;;5068912;28;20484;-75
2023/03/06 14:16:49;;;;;;;7.57;6.60;;;;;;;;;;5063244;28;20485;-75
2023/03/06 14:19:17;;;;;;;7.23;6.30;;;;;;;;;;5069281;28;20452;-78
2023/03/06 14:21:46;;;;;;;7.90;7.00;;;;;;;;;;5068929;28;20963;-77
2023/03/06 14:24:16;;;;;;;7.30;6.03;;;;;;;;;;5068839;28;20991;-75
2023/03/06 14:26:45;;;;;;;6.97;6.27;;;;;;;;;;5068907;28;20557;-76
2023/03/06 14:29:19;;;;;;;8.37;6.90;;;;;;;;;;5068976;28;20775;-76
2023/03/06 14:31:49;;;;;;;7.03;6.33;;;;;;;;;;5068980;28;20684;-76
2023/03/06 14:34:18;;;;;;;7.20;6.43;;;;;;;;;;5068498;28;20859;-76
2023/03/06 14:36:46;;;;;;;7.27;6.57;;;;;;;;;;5068755;28;20452;-76
2023/03/06 14:39:14;;;;;;;8.70;6.83;;;;;;;;;;5068256;28;20444;-74
2023/03/06 14:41:42;;;;;;;7.90;6.03;;;;;;;;;;5068488;28;20502;-77
2023/03/06 14:44:10;;;;;;;6.73;6.03;;;;;;;;;;5068547;28;20468;-78
2023/03/06 14:46:37;;;;;;;11.50;7.60;;;;;;;;;;5068613;28;20542;-77
2023/03/06 14:49:07;;;;;;;7.90;7.10;;;;;;;;;;5068651;28;20444;-77
2023/03/06 14:51:37;;;;;;;9.43;7.43;;;;;;;;;;5068567;28;20452;-76
2023/03/06 14:54:04;;;;;;;8.37;6.20;;;;;;;;;;5068054;28;21045;-76